Time;durP1;ratioP1;P1;durP2;ratioP2;P2;SDS_P1;SDS_P2;PMS_P1;PMS_P2;Temp;Humidity;BMP_temperature;BMP_pressure;BME280_temperature;BME280_humidity;BME280_pressure;Samples;Min_cycle;Max_cycle;Signal;HPM_P1;HPM_P2
2022/06/21 00:01:27;;;;;;;4.80;4.30;;;29.10;40.50;;;;;;8462937;28;20468;-42
2022/06/21 00:05:34;;;;;;;4.57;4.18;;;29.10;40.60;;;;;;8463233;28;20034;-42
2022/06/21 00:09:34;;;;;;;4.28;3.88;;;29.10;40.60;;;;;;8463958;28;20115;-42
2022/06/21 00:13:35;;;;;;;4.50;3.95;;;29.10;40.60;;;;;;8462865;28;20031;-42
2022/06/21 00:17:36;;;;;;;5.38;4.00;;;29.10;40.60;;;;;;8467019;28;20043;-42
2022/06/21 00:21:39;;;;;;;5.05;4.05;;;29.10;40.60;;;;;;8474665;27;20027;-41
2022/06/21 00:25:41;;;;;;;4.40;4.00;;;29.00;40.60;;;;;;8473942;27;20487;-42
2022/06/21 00:29:41;;;;;;;4.50;4.00;;;29.00;40.60;;;;;;8474852;27;20487;-43
2022/06/21 00:33:42;;;;;;;4.47;3.97;;;29.00;40.60;;;;;;8474195;27;20035;-41
2022/06/21 00:37:43;;;;;;;4.80;4.18;;;29.00;40.60;;;;;;8473562;27;20039;-41
2022/06/21 00:41:52;;;;;;;4.82;3.67;;;29.00;40.70;;;;;;8473971;27;20074;-41
2022/06/21 00:45:52;;;;;;;4.22;3.83;;;28.90;40.60;;;;;;8474014;27;20126;-41
2022/06/21 00:50:09;;;;;;;4.90;4.28;;;28.90;40.60;;;;;;8473719;27;20097;-41
2022/06/21 00:54:24;;;;;;;4.28;3.88;;;28.90;40.70;;;;;;8474086;27;20508;-41
2022/06/21 00:58:27;;;;;;;4.40;3.95;;;28.90;40.60;;;;;;8473381;27;20046;-41
2022/06/21 01:02:32;;;;;;;4.63;4.07;;;28.90;40.70;;;;;;8474079;27;20043;-42
2022/06/21 01:06:38;;;;;;;4.25;3.85;;;28.90;40.70;;;;;;8473715;27;20369;-41
2022/06/21 01:10:41;;;;;;;4.60;3.78;;;28.90;40.70;;;;;;8472103;27;20031;-41
2022/06/21 01:14:49;;;;;;;4.22;3.83;;;28.90;40.70;;;;;;8473761;27;20492;-41
2022/06/21 01:18:49;;;;;;;6.50;4.10;;;28.90;40.70;;;;;;8473738;27;20054;-41
2022/06/21 01:23:08;;;;;;;4.95;4.32;;;28.80;40.70;;;;;;8472986;27;20066;-41
2022/06/21 01:27:09;;;;;;;4.10;3.70;;;28.80;40.70;;;;;;8473272;27;20043;-41
2022/06/21 01:31:09;;;;;;;5.07;4.30;;;28.80;40.70;;;;;;8468020;28;20028;-41
2022/06/21 01:35:44;;;;;;;3.88;3.47;;;28.80;40.70;;;;;;8467580;27;20059;-41
2022/06/21 01:39:51;;;;;;;4.95;3.88;;;28.80;40.70;;;;;;8464887;28;20061;-42
2022/06/21 01:43:55;;;;;;;4.78;4.38;;;28.80;40.80;;;;;;8467279;27;20051;-41
2022/06/21 01:48:23;;;;;;;4.47;4.03;;;28.80;40.70;;;;;;8467467;28;20040;-41
2022/06/21 01:52:26;;;;;;;4.38;3.88;;;28.80;40.80;;;;;;8466443;28;20093;-41
2022/06/21 01:56:33;;;;;;;4.50;4.07;;;28.80;40.80;;;;;;8467210;28;20584;-41
2022/06/21 02:00:38;;;;;;;4.00;3.60;;;28.80;40.80;;;;;;8467374;27;20438;-42
2022/06/21 02:04:48;;;;;;;4.03;3.63;;;28.70;40.70;;;;;;8466565;28;20036;-41
2022/06/21 02:08:59;;;;;;;4.80;4.22;;;28.70;40.70;;;;;;8467097;28;20040;-41
2022/06/21 02:13:11;;;;;;;3.90;3.50;;;28.70;40.70;;;;;;8466831;28;20040;-41
2022/06/21 02:17:11;;;;;;;4.38;3.97;;;28.70;40.70;;;;;;8466506;28;20177;-41
2022/06/21 02:21:17;;;;;;;4.15;3.65;;;28.70;40.80;;;;;;8466477;28;20027;-41
2022/06/21 02:25:21;;;;;;;4.53;3.60;;;28.70;40.80;;;;;;8466230;27;20096;-41
2022/06/21 02:29:23;;;;;;;3.92;3.47;;;28.70;40.80;;;;;;8466490;28;20116;-41
2022/06/21 02:33:28;;;;;;;4.90;4.07;;;28.60;40.70;;;;;;8466100;28;20031;-41
2022/06/21 02:37:30;;;;;;;4.10;3.50;;;28.60;40.70;;;;;;8465515;28;20059;-41
2022/06/21 02:41:40;;;;;;;3.75;3.35;;;28.60;40.70;;;;;;8464591;28;20028;-41
2022/06/21 02:45:49;;;;;;;4.20;3.80;;;28.60;40.80;;;;;;8465952;27;20031;-41
2022/06/21 02:49:55;;;;;;;4.30;3.90;;;28.60;40.80;;;;;;8465112;28;20040;-41
2022/06/21 02:54:04;;;;;;;4.07;3.67;;;28.60;40.80;;;;;;8465800;28;20032;-43
2022/06/21 02:58:14;;;;;;;4.40;3.50;;;28.60;40.80;;;;;;8465288;28;20097;-43
2022/06/21 03:02:19;;;;;;;4.38;3.50;;;28.50;40.70;;;;;;8464894;28;20083;-42
2022/06/21 03:06:21;;;;;;;4.05;3.65;;;28.50;40.80;;;;;;8463753;28;20031;-42
2022/06/21 03:10:26;;;;;;;4.45;3.40;;;28.50;40.80;;;;;;8464509;28;20469;-42
2022/06/21 03:14:30;;;;;;;4.97;3.92;;;28.50;40.80;;;;;;8465010;28;20122;-42
2022/06/21 03:18:42;;;;;;;4.78;3.72;;;28.50;40.80;;;;;;8464634;27;20404;-42
2022/06/21 03:22:44;;;;;;;3.78;3.47;;;28.50;40.80;;;;;;8464019;28;20035;-42
2022/06/21 03:26:52;;;;;;;4.15;3.75;;;28.50;40.90;;;;;;8464477;28;20043;-42
2022/06/21 03:31:01;;;;;;;4.43;3.80;;;28.40;40.80;;;;;;8464473;28;20043;-41
2022/06/21 03:35:04;;;;;;;4.45;3.95;;;28.40;40.80;;;;;;8463472;28;20454;-41
2022/06/21 03:39:07;;;;;;;4.00;3.60;;;28.40;40.80;;;;;;8464036;28;20104;-42
2022/06/21 03:43:14;;;;;;;4.13;3.72;;;28.40;40.80;;;;;;8463832;28;20035;-42
2022/06/21 03:47:19;;;;;;;4.75;4.25;;;28.40;40.80;;;;;;8463446;28;20028;-42
2022/06/21 03:51:25;;;;;;;4.10;3.72;;;28.40;40.80;;;;;;8463455;28;20039;-42
2022/06/21 03:55:44;;;;;;;5.68;3.58;;;28.40;40.90;;;;;;8463107;28;20515;-41
2022/06/21 03:59:55;;;;;;;4.20;3.80;;;28.40;40.80;;;;;;8463558;28;20043;-41
2022/06/21 04:04:05;;;;;;;4.55;3.80;;;28.40;40.90;;;;;;8462180;28;20039;-41
2022/06/21 04:08:14;;;;;;;4.30;3.90;;;28.40;40.80;;;;;;8462903;28;20070;-41
2022/06/21 04:12:23;;;;;;;4.00;3.40;;;28.30;40.80;;;;;;8462100;28;20325;-42
2022/06/21 04:16:31;;;;;;;3.97;3.65;;;28.30;40.80;;;;;;8462965;28;20040;-41
2022/06/21 04:20:55;;;;;;;3.58;3.28;;;28.30;40.80;;;;;;8462993;28;20114;-41
2022/06/21 04:25:06;;;;;;;4.20;3.78;;;28.30;40.80;;;;;;8463190;28;20089;-42
2022/06/21 04:29:24;;;;;;;3.60;3.22;;;28.30;40.80;;;;;;8462617;28;20395;-41
2022/06/21 04:33:59;;;;;;;3.63;3.30;;;28.30;40.80;;;;;;8463027;28;20492;-42
2022/06/21 04:38:07;;;;;;;3.63;3.33;;;28.30;40.80;;;;;;8461953;28;20052;-42
2022/06/21 04:42:26;;;;;;;3.50;3.20;;;28.30;40.80;;;;;;8463053;28;20435;-41
2022/06/21 04:46:39;;;;;;;3.70;3.40;;;28.30;40.80;;;;;;8462615;28;20036;-41
2022/06/21 04:50:55;;;;;;;3.88;3.47;;;28.20;40.80;;;;;;8462675;28;20036;-41
2022/06/21 04:54:56;;;;;;;3.72;3.38;;;28.20;40.80;;;;;;8462478;28;20052;-41
2022/06/21 04:58:58;;;;;;;3.83;3.15;;;28.30;40.80;;;;;;8462212;28;20028;-41
2022/06/21 05:03:04;;;;;;;3.45;3.15;;;28.20;40.80;;;;;;8462595;28;20027;-42
2022/06/21 05:07:17;;;;;;;3.65;3.35;;;28.20;40.80;;;;;;8468187;28;20036;-41
2022/06/21 05:11:18;;;;;;;3.60;3.30;;;28.20;40.70;;;;;;8468536;28;20035;-41
2022/06/21 05:15:27;;;;;;;3.50;3.00;;;28.20;40.70;;;;;;8468484;28;20121;-41
2022/06/21 05:19:33;;;;;;;4.18;3.70;;;28.20;40.70;;;;;;8467857;27;20032;-42
2022/06/21 05:23:34;;;;;;;3.35;3.05;;;28.20;40.70;;;;;;8468580;28;20031;-42
2022/06/21 05:27:47;;;;;;;4.18;3.55;;;28.20;40.70;;;;;;8468177;28;20032;-41
2022/06/21 05:31:53;;;;;;;3.80;3.40;;;28.20;40.70;;;;;;8467748;28;20496;-42
2022/06/21 05:35:54;;;;;;;3.90;3.60;;;28.20;40.70;;;;;;8467882;27;20055;-42
2022/06/21 05:39:56;;;;;;;3.78;3.15;;;28.20;40.70;;;;;;8467591;28;20535;-42
2022/06/21 05:44:01;;;;;;;3.83;3.45;;;28.20;40.60;;;;;;8467124;28;20058;-42
2022/06/21 05:48:07;;;;;;;4.28;3.33;;;28.20;40.60;;;;;;8467382;27;20128;-41
2022/06/21 05:52:19;;;;;;;3.45;3.00;;;28.20;40.60;;;;;;8467537;28;20043;-42
2022/06/21 05:56:23;;;;;;;3.97;3.65;;;28.30;40.70;;;;;;8467049;28;20059;-41
2022/06/21 06:00:28;;;;;;;3.90;3.33;;;28.30;40.60;;;;;;8467039;28;20448;-41
2022/06/21 06:05:18;;;;;;;3.95;3.08;;;28.20;40.50;;;;;;8466633;28;20032;-41
2022/06/21 06:09:30;;;;;;;4.30;3.30;;;28.30;40.60;;;;;;8440049;28;20524;-41
2022/06/21 06:13:35;;;;;;;3.28;2.97;;;28.30;40.60;;;;;;8466300;28;20027;-41
2022/06/21 06:17:57;;;;;;;3.63;2.97;;;28.30;40.60;;;;;;8466354;28;20508;-42
2022/06/21 06:22:06;;;;;;;3.85;2.95;;;28.30;40.60;;;;;;8466700;28;20101;-42
2022/06/21 06:26:20;;;;;;;3.75;3.30;;;28.20;40.60;;;;;;8465789;28;20123;-42
2022/06/21 06:30:28;;;;;;;3.45;3.15;;;28.20;40.60;;;;;;8466233;28;20129;-42
2022/06/21 06:34:35;;;;;;;3.65;3.35;;;28.20;40.60;;;;;;8465373;28;20035;-42
2022/06/21 06:38:36;;;;;;;2.92;2.67;;;28.20;40.60;;;;;;8465916;28;20039;-42
2022/06/21 06:42:40;;;;;;;4.07;2.92;;;28.30;40.60;;;;;;8465830;28;20031;-42
2022/06/21 06:46:43;;;;;;;3.40;3.10;;;28.20;40.60;;;;;;8465298;28;20565;-42
2022/06/21 06:50:51;;;;;;;3.30;3.00;;;28.30;40.60;;;;;;8465343;28;20161;-42
2022/06/21 06:55:27;;;;;;;3.70;2.80;;;28.30;40.60;;;;;;8464993;28;20130;-42
2022/06/21 06:59:27;;;;;;;5.13;3.42;;;28.30;40.60;;;;;;8433333;28;20085;-42
2022/06/21 07:03:31;;;;;;;4.25;3.00;;;28.30;40.60;;;;;;8447425;28;20027;-42
2022/06/21 07:07:46;;;;;;;3.63;3.00;;;28.30;40.60;;;;;;8464587;27;20518;-42
2022/06/21 07:12:17;;;;;;;4.28;3.15;;;28.30;40.60;;;;;;8464786;28;20064;-41
2022/06/21 07:16:21;;;;;;;;;;;28.30;40.60;;;;;;8464679;28;20070;-41
2022/06/21 07:20:28;;;;;;;3.25;2.63;;;28.30;40.60;;;;;;8464572;28;19911;-41
2022/06/21 07:24:28;;;;;;;3.50;3.20;;;28.20;40.60;;;;;;8464152;28;20063;-41
2022/06/21 07:28:56;;;;;;;3.10;2.85;;;28.20;40.60;;;;;;8463176;27;20711;-41
2022/06/21 07:33:01;;;;;;;3.60;3.17;;;28.30;40.60;;;;;;8464314;28;20027;-41
2022/06/21 07:37:12;;;;;;;3.05;2.80;;;28.30;40.70;;;;;;8464072;28;20050;-41
2022/06/21 07:41:27;;;;;;;3.30;3.00;;;28.30;40.60;;;;;;8463531;28;20040;-41
2022/06/21 07:45:38;;;;;;;4.93;3.00;;;28.30;40.60;;;;;;8463719;28;20035;-41
2022/06/21 07:49:42;;;;;;;;;;;28.20;40.60;;;;;;8463797;27;20092;-42
2022/06/21 07:53:58;;;;;;;2.97;2.75;;;28.30;40.60;;;;;;8463658;28;19912;-42
2022/06/21 07:58:08;;;;;;;3.47;3.03;;;28.30;40.60;;;;;;8463811;27;20122;-41
2022/06/21 08:07:09;;;;;;;3.28;2.97;;;28.30;40.60;;;;;;8463395;28;20450;-41
2022/06/21 08:11:20;;;;;;;5.45;3.17;;;28.30;40.70;;;;;;8462699;28;20040;-42
2022/06/21 08:15:26;;;;;;;3.25;2.97;;;28.30;40.60;;;;;;8463212;28;20044;-42
2022/06/21 08:19:57;;;;;;;3.53;3.10;;;28.30;40.70;;;;;;8462479;28;20499;-42
2022/06/21 08:24:03;;;;;;;;;;;28.30;40.70;;;;;;8463685;28;20572;-42
2022/06/21 08:28:14;;;;;;;3.15;2.88;;;28.30;40.70;;;;;;8463254;28;19916;-42
2022/06/21 08:32:33;;;;;;;3.10;2.65;;;28.40;40.70;;;;;;8462551;28;20378;-42
2022/06/21 08:36:47;;;;;;;3.50;3.17;;;28.40;40.70;;;;;;8462859;28;20048;-42
2022/06/21 08:46:05;;;;;;;3.50;3.20;;;28.40;40.70;;;;;;8469375;28;20046;-42
2022/06/21 08:50:37;;;;;;;3.83;3.33;;;28.40;40.70;;;;;;8468849;27;20497;-42
2022/06/21 08:54:46;;;;;;;3.30;2.88;;;28.40;40.70;;;;;;8469104;28;20030;-42
2022/06/21 08:59:11;;;;;;;2.97;2.67;;;28.40;40.70;;;;;;8468652;28;20404;-42
2022/06/21 09:04:08;;;;;;;3.13;2.85;;;28.40;40.70;;;;;;8469496;27;20036;-42
2022/06/21 09:08:17;;;;;;;3.25;2.95;;;28.50;41.30;;;;;;8364437;28;20059;-42
2022/06/21 09:12:36;;;;;;;3.47;3.17;;;28.40;40.80;;;;;;8424447;28;20034;-42
2022/06/21 09:17:17;;;;;;;3.38;2.72;;;28.40;40.80;;;;;;8467957;27;20046;-42
2022/06/21 09:21:36;;;;;;;3.13;2.92;;;28.50;40.90;;;;;;8468640;27;20058;-42
2022/06/21 09:26:01;;;;;;;2.92;2.67;;;28.40;40.80;;;;;;8468010;27;20050;-42
2022/06/21 09:30:16;;;;;;;4.65;2.92;;;28.40;40.80;;;;;;8468255;28;20023;-42
2022/06/21 09:34:28;;;;;;;4.20;3.13;;;28.40;40.80;;;;;;8467639;27;20484;-42
2022/06/21 09:39:03;;;;;;;2.65;2.45;;;28.40;40.80;;;;;;8468387;28;20471;-42
2022/06/21 09:43:36;;;;;;;3.20;2.85;;;28.40;40.80;;;;;;8467920;27;20469;-42
2022/06/21 09:47:47;;;;;;;4.45;3.08;;;28.40;40.90;;;;;;8467641;27;20034;-41
2022/06/21 09:52:21;;;;;;;3.70;3.40;;;28.50;40.90;;;;;;8466895;28;20040;-42
2022/06/21 09:56:31;;;;;;;2.92;2.72;;;28.50;40.90;;;;;;8466896;28;20054;-42
2022/06/21 10:00:54;;;;;;;4.73;2.70;;;28.50;40.90;;;;;;8467361;28;20077;-42
2022/06/21 10:05:24;;;;;;;3.35;3.05;;;28.50;40.90;;;;;;8465734;28;20028;-41
2022/06/21 10:09:34;;;;;;;4.70;2.93;;;28.60;40.90;;;;;;8466964;28;20028;-42
2022/06/21 10:13:47;;;;;;;3.70;3.38;;;28.60;40.90;;;;;;8466767;28;20028;-42
2022/06/21 10:18:14;;;;;;;3.15;2.85;;;28.60;40.90;;;;;;8466558;28;20051;-42
2022/06/21 10:22:29;;;;;;;3.15;2.85;;;28.60;40.90;;;;;;8466008;27;20032;-43
2022/06/21 10:26:40;;;;;;;3.47;3.05;;;28.70;40.90;;;;;;8466585;27;20121;-42
2022/06/21 10:30:56;;;;;;;3.53;3.13;;;28.70;40.90;;;;;;8466337;28;20027;-42
2022/06/21 10:35:18;;;;;;;3.42;3.13;;;28.70;40.90;;;;;;8465507;28;20036;-42
2022/06/21 10:39:19;;;;;;;2.80;2.60;;;28.70;40.80;;;;;;8465802;28;20031;-42
2022/06/21 10:43:42;;;;;;;3.08;2.80;;;28.70;40.80;;;;;;8465568;28;20039;-42
2022/06/21 10:48:00;;;;;;;3.10;2.80;;;28.70;40.80;;;;;;8465519;28;20028;-42
2022/06/21 10:52:38;;;;;;;3.05;2.75;;;28.80;40.90;;;;;;8465368;28;20059;-41
2022/06/21 10:57:09;;;;;;;3.30;2.92;;;28.80;40.80;;;;;;8452581;27;20048;-41
2022/06/21 11:01:37;;;;;;;;;;;28.80;40.80;;;;;;8464982;28;20590;-42
2022/06/21 11:06:08;;;;;;;6.28;3.03;;;28.90;40.90;;;;;;8441103;27;19912;-42
2022/06/21 11:10:28;;;;;;;3.17;2.88;;;28.90;40.80;;;;;;8464778;28;20502;-42
2022/06/21 11:14:54;;;;;;;2.70;2.50;;;28.90;40.80;;;;;;8464718;28;20430;-41
2022/06/21 11:19:22;;;;;;;3.58;3.00;;;28.90;40.80;;;;;;8464844;28;20335;-42
2022/06/21 11:23:52;;;;;;;3.50;3.20;;;28.90;40.80;;;;;;8465076;28;20123;-41
2022/06/21 11:27:59;;;;;;;3.30;3.00;;;28.90;40.80;;;;;;8464259;28;20043;-42
2022/06/21 11:32:33;;;;;;;3.08;2.65;;;28.90;40.80;;;;;;8463818;28;20425;-42
2022/06/21 11:36:46;;;;;;;3.55;3.22;;;28.90;40.70;;;;;;8464088;28;20047;-42
2022/06/21 11:41:08;;;;;;;3.20;2.90;;;29.00;40.80;;;;;;8463599;28;20123;-42
2022/06/21 11:45:36;;;;;;;3.00;2.80;;;29.00;40.70;;;;;;8464290;28;20373;-42
2022/06/21 11:49:59;;;;;;;3.30;3.00;;;29.00;40.70;;;;;;8463675;28;20537;-42
2022/06/21 11:54:09;;;;;;;3.00;2.70;;;29.10;40.80;;;;;;8464133;28;20042;-41
2022/06/21 11:58:13;;;;;;;3.30;2.92;;;29.10;40.80;;;;;;8463769;28;20051;-42
2022/06/21 12:02:34;;;;;;;3.28;2.90;;;29.10;40.70;;;;;;8463130;28;20085;-42
2022/06/21 12:06:40;;;;;;;;;;;29.10;40.70;;;;;;8463487;28;20034;-41
2022/06/21 12:10:51;;;;;;;3.45;2.70;;;29.10;40.80;;;;;;8462810;28;19958;-41
2022/06/21 12:15:01;;;;;;;3.00;2.70;;;29.10;40.80;;;;;;8463245;28;20023;-41
2022/06/21 12:19:07;;;;;;;3.13;2.78;;;29.00;40.70;;;;;;8463610;28;20055;-41
2022/06/21 12:23:16;;;;;;;3.80;2.95;;;29.10;40.80;;;;;;8462703;28;20036;-42
2022/06/21 12:27:17;;;;;;;2.70;2.50;;;29.10;40.80;;;;;;8463228;28;20404;-41
2022/06/21 12:31:39;;;;;;;2.70;2.50;;;29.10;40.80;;;;;;8462644;28;20043;-41
2022/06/21 12:36:13;;;;;;;2.95;2.75;;;29.10;40.70;;;;;;8462968;28;20523;-41
2022/06/21 12:40:31;;;;;;;3.20;2.90;;;29.20;40.70;;;;;;8434992;28;20032;-41
2022/06/21 12:44:37;;;;;;;3.15;2.85;;;29.10;40.70;;;;;;8462903;28;20036;-41
2022/06/21 12:48:58;;;;;;;3.45;3.15;;;29.20;40.60;;;;;;8462973;28;20063;-41
2022/06/21 12:53:06;;;;;;;;;;;29.20;40.70;;;;;;8462323;28;20107;-42
2022/06/21 12:57:06;;;;;;;2.70;2.50;;;29.20;40.70;;;;;;8462244;28;19949;-41
2022/06/21 13:01:22;;;;;;;3.55;3.25;;;29.30;40.70;;;;;;8461475;28;20466;-41
2022/06/21 13:05:47;;;;;;;3.40;3.10;;;29.20;40.60;;;;;;8429780;28;20127;-42
2022/06/21 13:10:15;;;;;;;3.35;3.05;;;29.30;40.60;;;;;;8462346;28;20039;-42
2022/06/21 13:14:36;;;;;;;4.50;3.58;;;29.30;40.60;;;;;;8462203;28;20085;-42
2022/06/21 13:19:14;;;;;;;4.00;3.60;;;29.30;40.60;;;;;;8462354;28;20054;-42
2022/06/21 13:23:43;;;;;;;4.60;4.20;;;29.40;40.60;;;;;;8461922;28;20039;-42
2022/06/21 13:28:18;;;;;;;4.30;3.88;;;29.40;40.60;;;;;;8467296;28;20088;-42
2022/06/21 13:32:25;;;;;;;5.13;4.25;;;29.40;40.60;;;;;;8468186;28;20144;-42
2022/06/21 13:36:46;;;;;;;4.60;4.18;;;29.40;40.60;;;;;;8468040;28;20050;-41
2022/06/21 13:46:01;;;;;;;5.00;4.50;;;29.50;40.60;;;;;;8467564;28;20111;-42
2022/06/21 13:50:20;;;;;;;6.13;5.30;;;29.40;40.50;;;;;;8467202;28;20040;-41
2022/06/21 13:54:42;;;;;;;6.93;5.65;;;29.40;40.50;;;;;;8466007;28;20091;-42
2022/06/21 13:58:47;;;;;;;8.13;6.28;;;29.50;40.50;;;;;;8466706;28;20068;-40
2022/06/21 14:03:01;;;;;;;8.05;6.25;;;29.50;40.50;;;;;;8467074;27;20084;-43
2022/06/21 14:07:17;;;;;;;6.38;5.72;;;29.50;40.50;;;;;;8467015;27;20039;-42
2022/06/21 14:11:43;;;;;;;6.35;5.45;;;29.50;40.50;;;;;;8466891;28;20035;-41
2022/06/21 14:15:56;;;;;;;6.65;5.90;;;29.50;41.10;;;;;;8466597;28;20040;-42
2022/06/21 14:20:06;;;;;;;6.82;5.80;;;29.50;40.50;;;;;;8466401;27;20054;-42
2022/06/21 14:24:26;;;;;;;7.35;6.43;;;29.50;40.50;;;;;;8466421;28;20039;-43
2022/06/21 14:28:37;;;;;;;6.93;5.97;;;29.60;40.60;;;;;;8465986;28;20035;-42
2022/06/21 14:32:51;;;;;;;6.80;5.93;;;29.50;40.50;;;;;;8466347;28;20046;-41
2022/06/21 14:37:01;;;;;;;8.00;6.30;;;29.50;40.50;;;;;;8465689;28;20408;-42
2022/06/21 14:41:17;;;;;;;7.75;6.50;;;29.50;40.60;;;;;;8465381;28;20433;-41
2022/06/21 14:45:36;;;;;;;7.60;6.25;;;29.50;40.60;;;;;;8465980;27;20059;-41
2022/06/21 14:49:46;;;;;;;7.40;6.60;;;29.50;40.60;;;;;;8465079;28;20064;-42
2022/06/21 14:54:13;;;;;;;7.47;6.67;;;29.50;40.60;;;;;;8465515;27;20523;-42
2022/06/21 14:58:38;;;;;;;8.82;6.78;;;29.50;40.60;;;;;;8464742;28;20367;-42
2022/06/21 15:03:03;;;;;;;8.98;7.10;;;29.50;40.60;;;;;;8465083;28;20043;-42
2022/06/21 15:07:09;;;;;;;9.50;6.90;;;29.60;40.60;;;;;;8465003;28;20109;-42
2022/06/21 15:11:18;;;;;;;8.65;7.00;;;29.50;40.60;;;;;;8464466;28;20036;-42
2022/06/21 15:15:23;;;;;;;9.30;6.88;;;29.50;40.50;;;;;;8465256;28;20442;-43
2022/06/21 15:19:53;;;;;;;8.35;6.93;;;29.50;40.50;;;;;;8464207;28;20055;-41
2022/06/21 15:24:19;;;;;;;7.05;6.35;;;29.50;40.50;;;;;;8464788;28;20031;-41
2022/06/21 15:28:29;;;;;;;8.23;6.68;;;29.60;40.60;;;;;;8463913;28;20127;-42
2022/06/21 15:32:39;;;;;;;7.68;6.30;;;29.60;40.60;;;;;;8464315;27;20500;-42
2022/06/21 15:36:58;;;;;;;7.57;6.35;;;29.60;40.60;;;;;;8464063;28;20126;-42
2022/06/21 15:41:00;;;;;;;8.55;6.43;;;29.60;40.60;;;;;;8463867;28;20404;-41
2022/06/21 15:45:28;;;;;;;7.22;6.53;;;29.60;40.50;;;;;;8464093;28;20043;-42
2022/06/21 15:54:08;;;;;;;8.00;6.40;;;29.60;40.50;;;;;;8464026;28;20066;-41
2022/06/21 15:58:33;;;;;;;7.53;6.53;;;29.60;40.50;;;;;;8463364;28;20491;-41
2022/06/21 16:03:01;;;;;;;8.38;6.65;;;29.60;40.50;;;;;;8463204;28;20032;-42
2022/06/21 16:07:15;;;;;;;6.80;6.05;;;29.60;40.50;;;;;;8463276;28;20055;-41
2022/06/21 16:11:23;;;;;;;6.80;5.93;;;29.60;40.50;;;;;;8433408;28;20032;-42
2022/06/21 16:15:24;;;;;;;7.47;5.95;;;29.70;40.60;;;;;;8461534;28;20039;-42
2022/06/21 16:19:25;;;;;;;8.07;6.72;;;29.60;40.50;;;;;;8462580;28;20549;-43
2022/06/21 16:23:39;;;;;;;8.75;6.72;;;29.60;40.60;;;;;;8463105;28;20035;-44
2022/06/21 16:27:48;;;;;;;6.65;5.80;;;29.60;40.60;;;;;;8463223;28;20697;-42
2022/06/21 16:36:41;;;;;;;7.35;6.35;;;29.60;40.60;;;;;;8462044;28;20557;-42
2022/06/21 16:45:28;;;;;;;7.93;6.55;;;29.60;40.50;;;;;;8463053;28;20099;-42
2022/06/21 16:49:51;;;;;;;6.45;5.70;;;29.60;40.60;;;;;;8462408;28;20456;-42
2022/06/21 16:53:57;;;;;;;6.85;6.13;;;29.60;40.60;;;;;;8462945;28;20092;-42
2022/06/21 16:58:05;;;;;;;7.05;6.35;;;29.60;40.60;;;;;;8462741;28;20043;-42
2022/06/21 17:02:16;;;;;;;7.13;6.05;;;29.50;40.50;;;;;;8466509;28;20423;-42
2022/06/21 17:06:38;;;;;;;7.45;6.38;;;29.60;40.60;;;;;;8468078;28;20027;-42
2022/06/21 17:15:00;;;;;;;6.75;5.97;;;29.50;40.50;;;;;;8468999;28;20085;-42
2022/06/21 17:19:30;;;;;;;7.80;6.78;;;29.60;40.60;;;;;;8468698;27;20044;-42
2022/06/21 17:23:58;;;;;;;7.50;6.70;;;29.50;40.60;;;;;;8426826;28;20038;-42
2022/06/21 17:28:22;;;;;;;9.38;6.38;;;29.50;40.60;;;;;;8467896;28;20047;-41
2022/06/21 17:32:36;;;;;;;7.45;6.70;;;29.60;40.70;;;;;;8467960;27;20040;-42
2022/06/21 17:36:49;;;;;;;7.07;6.38;;;29.50;40.70;;;;;;8468148;28;20116;-42
2022/06/21 17:41:02;;;;;;;7.75;6.25;;;29.50;40.70;;;;;;8467304;28;20523;-41
2022/06/21 17:45:19;;;;;;;7.18;6.07;;;29.50;40.70;;;;;;8467837;28;20043;-41
2022/06/21 17:49:31;;;;;;;7.90;6.10;;;29.50;40.70;;;;;;8467048;28;20507;-41
2022/06/21 17:53:34;;;;;;;8.27;6.43;;;29.50;40.80;;;;;;8463935;28;20517;-41
2022/06/21 17:57:43;;;;;;;11.48;6.60;;;29.50;40.80;;;;;;8440013;28;20040;-39
2022/06/21 18:01:54;;;;;;;7.10;5.90;;;29.50;41.00;;;;;;8436279;28;20032;-41
2022/06/21 18:06:01;;;;;;;7.03;5.65;;;29.40;40.80;;;;;;8463959;28;20027;-40
2022/06/21 18:10:21;;;;;;;7.82;5.47;;;29.40;39.20;;;;;;8461934;28;20031;-43
2022/06/21 18:14:26;;;;;;;7.95;5.25;;;29.50;39.90;;;;;;8461934;28;20054;-41
2022/06/21 18:18:45;;;;;;;7.15;5.22;;;29.50;39.20;;;;;;8465066;28;20062;-41
2022/06/21 18:23:21;;;;;;;6.20;4.95;;;29.50;38.90;;;;;;8464622;27;20059;-43
2022/06/21 18:27:34;;;;;;;8.75;4.80;;;29.50;38.20;;;;;;8446853;28;20044;-41
2022/06/21 18:31:58;;;;;;;6.90;4.28;;;29.50;38.00;;;;;;8463661;28;20043;-40
2022/06/21 18:36:13;;;;;;;4.63;3.72;;;29.50;37.60;;;;;;8459800;28;20052;-39
2022/06/21 18:40:32;;;;;;;10.02;3.92;;;29.50;37.50;;;;;;8461874;27;20065;-41
2022/06/21 18:45:06;;;;;;;8.40;3.95;;;29.60;37.50;;;;;;8461614;28;20032;-40
2022/06/21 18:49:18;;;;;;;9.15;4.25;;;29.50;37.80;;;;;;8464472;28;20043;-41
2022/06/21 18:53:58;;;;;;;7.55;3.78;;;29.50;37.90;;;;;;8462544;28;20035;-42
2022/06/21 18:58:27;;;;;;;7.60;3.90;;;29.60;37.90;;;;;;8448336;28;20047;-43
2022/06/21 19:02:41;;;;;;;13.73;5.18;;;29.50;37.20;;;;;;8447332;28;20098;-44
2022/06/21 19:11:57;;;;;;;17.15;5.88;;;29.30;40.10;;;;;;8449178;28;20047;-43
2022/06/21 19:16:30;;;;;;;12.60;4.32;;;29.10;42.50;;;;;;8421857;28;20046;-40
2022/06/21 19:21:15;;;;;;;11.18;5.43;;;28.90;44.20;;;;;;8435821;28;20039;-41
2022/06/21 19:25:40;;;;;;;12.23;4.20;;;28.80;45.80;;;;;;8315825;28;20685;-41
2022/06/21 19:29:50;;;;;;;9.55;4.38;;;28.70;46.00;;;;;;8397662;28;20047;-42
2022/06/21 19:34:28;;;;;;;12.43;4.45;;;28.60;46.80;;;;;;8460031;28;20089;-44
2022/06/21 19:39:13;;;;;;;8.82;4.00;;;28.50;47.00;;;;;;8452495;28;20040;-44
2022/06/21 19:43:42;;;;;;;12.65;4.85;;;28.30;47.10;;;;;;8430564;28;20039;-44
2022/06/21 19:47:59;;;;;;;14.23;4.13;;;28.20;46.40;;;;;;8444692;28;20050;-44
2022/06/21 19:52:19;;;;;;;13.75;4.57;;;28.20;47.20;;;;;;8459521;28;20484;-43
2022/06/21 19:56:33;;;;;;;7.90;4.23;;;28.10;47.30;;;;;;8454426;28;20039;-43
2022/06/21 20:00:33;;;;;;;15.25;4.78;;;28.00;47.10;;;;;;8448979;28;20028;-45
2022/06/21 20:04:54;;;;;;;11.23;4.50;;;28.00;47.30;;;;;;8455093;28;20038;-46
2022/06/21 20:09:03;;;;;;;7.20;3.92;;;27.90;47.80;;;;;;8462774;28;20118;-45
2022/06/21 20:13:20;;;;;;;7.25;3.83;;;27.90;48.00;;;;;;8443603;28;20028;-45
2022/06/21 20:17:28;;;;;;;10.73;4.13;;;27.90;48.00;;;;;;8437267;28;20126;-44
2022/06/21 20:21:59;;;;;;;9.70;4.47;;;28.10;47.60;;;;;;8444133;28;20039;-44
2022/06/21 20:26:09;;;;;;;11.30;4.13;;;28.20;47.10;;;;;;8452909;28;20123;-44
2022/06/21 20:30:24;;;;;;;10.48;3.72;;;28.40;47.00;;;;;;8462594;28;20068;-44
2022/06/21 20:34:30;;;;;;;6.88;3.95;;;28.60;46.60;;;;;;8463848;28;20020;-44
2022/06/21 20:38:52;;;;;;;8.05;4.10;;;28.70;46.40;;;;;;8449953;28;20583;-45
2022/06/21 20:43:12;;;;;;;11.18;4.68;;;28.90;46.40;;;;;;8453454;28;20123;-45
2022/06/21 20:47:13;;;;;;;6.78;3.90;;;28.90;46.20;;;;;;8468503;28;20035;-45
2022/06/21 20:51:31;;;;;;;10.02;4.68;;;29.00;46.50;;;;;;8458696;27;20043;-46
2022/06/21 20:55:32;;;;;;;8.18;4.03;;;29.00;46.70;;;;;;8457806;28;20071;-46
2022/06/21 20:59:40;;;;;;;9.75;4.38;;;29.00;46.50;;;;;;8465058;28;20035;-44
2022/06/21 21:03:45;;;;;;;10.88;4.53;;;29.00;46.40;;;;;;8453886;28;20046;-43
2022/06/21 21:08:02;;;;;;;12.68;4.10;;;29.00;46.80;;;;;;8468361;28;20055;-42
2022/06/21 21:12:07;;;;;;;7.93;4.25;;;28.80;46.00;;;;;;8468649;28;20488;-43
2022/06/21 21:16:13;;;;;;;6.32;3.20;;;28.50;45.70;;;;;;8440669;28;20044;-41
2022/06/21 21:20:25;;;;;;;9.85;3.20;;;28.30;45.60;;;;;;8437587;28;20042;-42
2022/06/21 21:24:32;;;;;;;8.65;3.35;;;28.10;45.60;;;;;;8457158;28;20039;-42
2022/06/21 21:28:33;;;;;;;10.05;3.95;;;28.00;46.20;;;;;;8465635;28;23788;-44
2022/06/21 21:32:53;;;;;;;7.65;4.00;;;27.80;46.50;;;;;;8464338;28;20073;-45
2022/06/21 21:37:03;;;;;;;11.00;3.97;;;27.90;46.40;;;;;;8462999;28;20360;-45
2022/06/21 21:41:15;;;;;;;6.50;3.50;;;28.00;46.00;;;;;;8464371;27;20035;-45
2022/06/21 21:45:17;;;;;;;5.43;3.60;;;28.20;45.70;;;;;;8464127;28;20511;-44
2022/06/21 21:49:22;;;;;;;7.30;3.42;;;28.30;45.40;;;;;;8466396;28;20038;-43
2022/06/21 21:53:25;;;;;;;11.40;4.00;;;28.30;45.10;;;;;;8467797;28;20039;-45
2022/06/21 21:57:33;;;;;;;5.10;3.53;;;28.40;45.00;;;;;;8467150;28;20047;-45
2022/06/21 22:01:37;;;;;;;11.43;3.58;;;28.50;44.80;;;;;;8465772;27;20541;-45
2022/06/21 22:05:58;;;;;;;6.18;3.55;;;28.50;44.60;;;;;;8467273;28;20504;-44
2022/06/21 22:09:58;;;;;;;;;;;28.50;44.50;;;;;;8449408;28;20081;-45
2022/06/21 22:14:09;;;;;;;5.43;3.72;;;28.50;44.40;;;;;;8466259;28;19914;-44
2022/06/21 22:18:28;;;;;;;;;;;28.50;44.40;;;;;;8467132;28;20450;-44
2022/06/21 22:22:51;;;;;;;5.25;2.90;;;28.50;44.30;;;;;;8466087;27;19912;-44
2022/06/21 22:26:53;;;;;;;5.72;3.33;;;28.50;44.30;;;;;;8466733;28;20040;-44
2022/06/21 22:31:11;;;;;;;7.18;3.97;;;28.50;44.30;;;;;;8466213;27;20032;-45
2022/06/21 22:35:14;;;;;;;5.88;4.22;;;28.50;44.20;;;;;;8465599;27;20102;-47
2022/06/21 22:39:19;;;;;;;6.45;3.60;;;28.50;44.10;;;;;;8466152;28;20535;-45